Buoy 51627

sailwx.info

Track history (hours):
 
Tides and Currents Weather Stations Pressure Air Temp Water Temp Dewpoint Dewpoint Depression Visibility Wind Speed Wind Dir Waves Ship Positions

Drifting buoy 51627

Last reported at 2016-May-04 22:00 UTC. Time now 2016-May-05 02:49 UTC.
Position N 15°08' E 137°23'.

Water temperature 28.7 ° C

Date/timePositionNaut miles runAvg speedWind from/ knotsBaromVisibWave heightAir tempDewpointWater temp
2016-May-04 22:00N 15°08' E 137°23'0 0.0 28.7
2016-May-04 20:00N 15°08' E 137°23'1 0.5 28.7
2016-May-04 19:00N 15°08' E 137°23'1 0.8 28.7
2016-May-04 18:00N 15°08' E 137°23'1 1.0 28.7
2016-May-04 17:00N 15°08' E 137°25'0 0.0 28.7
2016-May-04 16:00N 15°08' E 137°25'1 0.3 28.7
2016-May-04 12:00N 15°08' E 137°26'0 0.1 28.8
2016-May-04 11:00N 15°08' E 137°26'2 0.8 28.8
2016-May-04 08:00N 15°09' E 137°28'2 1.8 28.9
2016-May-04 07:00N 15°08' E 137°26'2 0.9 28.9
2016-May-04 05:00N 15°09' E 137°28'3 0.7 28.9
2016-May-04 01:00N 15°12' E 137°29'1 0.7 28.8
2016-May-03 23:00N 15°13' E 137°28'2 0.7 28.7
2016-May-03 20:00N 15°14' E 137°27'0 0.2 28.7
2016-May-03 19:00N 15°14' E 137°27'0 0.1 28.7
2016-May-03 18:00N 15°14' E 137°27'0 0.4 28.7
2016-May-03 17:00N 15°15' E 137°27'0 0.0 28.8
2016-May-03 16:00N 15°15' E 137°27'1 0.2 28.7
2016-May-03 13:00N 15°15' E 137°27'2 0.6 28.8
2016-May-03 10:00N 15°17' E 137°26'0 0.4 28.8
2016-May-03 09:00N 15°16' E 137°26'0 0.2 28.9
2016-May-03 07:00N 15°16' E 137°26'0 0.2 29.0
2016-May-03 05:00N 15°15' E 137°26'1 1.0 28.9
2016-May-03 04:00N 15°15' E 137°27'1 0.4 28.9
2016-May-03 01:00N 15°17' E 137°28'0 0.0 28.8
2016-May-03 00:00N 15°17' E 137°28'1 0.6 28.7
2016-May-02 23:00N 15°17' E 137°27'0 0.0 28.7
2016-May-02 22:00N 15°17' E 137°27'1 0.7 28.7
2016-May-02 21:00N 15°18' E 137°27'0 0.2 28.7
2016-May-02 20:00N 15°18' E 137°27'0 0.3 28.8
2016-May-02 19:00N 15°17' E 137°27'1 0.9 28.8
2016-May-02 18:00N 15°18' E 137°28'0 0.0 28.8
2016-May-02 17:00N 15°18' E 137°28'2 2.5 28.8
2016-May-02 16:00N 15°19' E 137°30'2 0.3 28.8
2016-May-02 09:00N 15°21' E 137°31'5 0.6 29.0
2016-May-02 01:00N 15°24' E 137°34'2 0.4 28.8
2016-May-01 21:00N 15°26' E 137°33'0 0.3 28.5
2016-May-01 20:00N 15°26' E 137°33'1 0.8 28.6
2016-May-01 19:00N 15°27' E 137°33'0 0.2 28.6
2016-May-01 18:00N 15°27' E 137°33'0 0.0 28.7
2016-May-01 17:00N 15°27' E 137°33'2 0.5 28.7
2016-May-01 13:00N 15°27' E 137°35'0 0.0 28.7
2016-May-01 12:00N 15°27' E 137°35'1 0.6 28.8
2016-May-01 11:00N 15°27' E 137°35'1 0.5 28.8
2016-May-01 09:00N 15°27' E 137°36'1 0.8 28.8
2016-May-01 08:00N 15°27' E 137°37'1 0.3 28.9
2016-May-01 06:00N 15°27' E 137°38'1 0.5 29.2
2016-May-01 04:00N 15°27' E 137°39'2 0.8 29.1
2016-May-01 01:00N 15°27' E 137°41'0 0.5 28.7
2016-May-01 00:00N 15°27' E 137°41'2 2.2 28.5
2016-Apr-30 23:00N 15°27' E 137°43'0 0.2 28.5
2016-Apr-30 21:00N 15°27' E 137°43'1 1.1 28.4
2016-Apr-30 20:00N 15°28' E 137°44'1 0.8 28.4
2016-Apr-30 19:00N 15°28' E 137°43'1 0.8 28.4
2016-Apr-30 18:00N 15°28' E 137°44'0 0.1 28.5
2016-Apr-30 17:00N 15°28' E 137°44'0 0.0 28.5
2016-Apr-30 16:00N 15°28' E 137°44'3 0.7 28.6
2016-Apr-30 11:00N 15°26' E 137°47'2 1.1 28.7
2016-Apr-30 09:00N 15°26' E 137°49'1 1.0 28.8
2016-Apr-30 08:00N 15°26' E 137°50'1 0.8 29.0
2016-Apr-30 07:00N 15°27' E 137°51'1 0.8 29.2
2016-Apr-30 06:00N 15°26' E 137°52'0 0.0 29.2
2016-Apr-30 05:00N 15°26' E 137°52'0 0.0 29.1
2016-Apr-30 04:00N 15°26' E 137°52'2 0.5 29.1
2016-Apr-30 01:00N 15°25' E 137°53'1 0.9 28.6
2016-Apr-30 00:00N 15°25' E 137°54'0 0.0 28.5
2016-Apr-29 23:00N 15°25' E 137°54'0 0.5 28.4
2016-Apr-29 22:00N 15°25' E 137°54'0 0.3 28.4
2016-Apr-29 21:00N 15°24' E 137°55'1 0.9 28.4
2016-Apr-29 20:00N 15°24' E 137°56'1 0.6 28.4
2016-Apr-29 19:00N 15°24' E 137°56'1 0.7 28.4
2016-Apr-29 17:00N 15°24' E 137°57'0 0.0 28.5
2016-Apr-29 16:00N 15°24' E 137°57'2 0.7 28.5
2016-Apr-29 13:00N 15°22' E 137°59'0 0.0 28.7
2016-Apr-29 12:00N 15°22' E 137°59'2 1.2 28.8
2016-Apr-29 10:00N 15°21' E 138°01'2 1.8 28.8
2016-Apr-29 09:00N 15°20' E 138°03'0 0.2 29.0
2016-Apr-29 07:00N 15°20' E 138°03'2 1.7 29.1
2016-Apr-29 06:00N 15°20' E 138°05'1 0.3 29.3
2016-Apr-29 04:00N 15°20' E 138°04'0 0.1 29.1
2016-Apr-29 01:00N 15°19' E 138°04'0 0.0 28.6
2016-Apr-29 00:00N 15°19' E 138°04'1 1.4 28.5
2016-Apr-28 23:00N 15°18' E 138°04'1 1.1 28.4
2016-Apr-28 22:00N 15°18' E 138°05'1 0.6 28.3
2016-Apr-28 20:00N 15°17' E 138°06'2 0.2 28.3
2016-Apr-28 11:00N 15°16' E 138°07'1 0.3 28.5
2016-Apr-28 08:00N 15°15' E 138°08'2 0.5 28.6
2016-Apr-28 05:00N 15°14' E 138°09'2 0.4 28.7
2016-Apr-28 01:00N 15°13' E 138°11'0 0.0 28.4
2016-Apr-28 00:00N 15°13' E 138°11'1 1.0 28.4
2016-Apr-27 23:00N 15°12' E 138°10'1 0.2 28.3
2016-Apr-27 20:00N 15°12' E 138°11'0 0.0 28.3
2016-Apr-27 17:00N 15°12' E 138°11'3 0.6 28.3
2016-Apr-27 12:00N 15°09' E 138°11'1 1.1 28.3
2016-Apr-27 11:00N 15°08' E 138°12'0 0.0 28.5
2016-Apr-27 10:00N 15°08' E 138°12'0 0.0 28.5
2016-Apr-27 09:00N 15°08' E 138°12'2 0.5 28.6
2016-Apr-27 05:00N 15°06' E 138°13'2 0.3 28.8
2016-Apr-26 21:00N 15°04' E 138°14'1 0.4 28.2
2016-Apr-26 18:00N 15°04' E 138°14'1 0.5 28.3
2016-Apr-26 16:00N 15°03' E 138°15'1 0.3 28.3
2016-Apr-26 12:00N 15°03' E 138°17'1 0.3 28.3
2016-Apr-26 10:00N 15°03' E 138°17'0 0.1 28.3
2016-Apr-26 08:00N 15°03' E 138°18'0 0.0 28.4
2016-Apr-26 07:00N 15°03' E 138°18'1 0.3 28.4
2016-Apr-26 05:00N 15°04' E 138°18'0 0.1 28.5
2016-Apr-26 01:00N 15°04' E 138°18'2 1.6 28.3
2016-Apr-26 00:00N 15°02' E 138°18'0 0.0 28.2
2016-Apr-25 23:00N 15°02' E 138°18'0 0.2 28.2
2016-Apr-25 21:00N 15°02' E 138°18'1 0.6 28.2
2016-Apr-25 20:00N 15°02' E 138°18'0 0.3 28.2
2016-Apr-25 19:00N 15°02' E 138°18'0 0.3 28.2
2016-Apr-25 18:00N 15°02' E 138°19'0 0.3 28.2
2016-Apr-25 17:00N 15°01' E 138°19'2 1.7 28.2
2016-Apr-25 16:00N 15°00' E 138°20'1 0.1 28.2
2016-Apr-25 11:00N 15°00' E 138°21'1 1.1 28.2
2016-Apr-25 10:00N 14°60' E 138°22'0 0.4 28.3
2016-Apr-25 09:00N 14°60' E 138°22'1 0.7 28.3
2016-Apr-25 08:00N 14°60' E 138°22'1 0.5 28.3
2016-Apr-25 07:00N 14°59' E 138°22'1 0.8 28.3
2016-Apr-25 06:00N 14°59' E 138°23'0 0.0 28.3
2016-Apr-25 05:00N 14°59' E 138°23'3 0.5 28.3
2016-Apr-24 23:00N 14°59' E 138°26'0 0.3 28.2
2016-Apr-24 22:00N 14°59' E 138°26'   28.1
Track history (hours):
 
Tides and Currents Weather Stations Pressure Air Temp Water Temp Dewpoint Dewpoint Depression Visibility Wind Speed Wind Dir Waves Ship Positions

Drifting buoy 51627

Last reported at 2016-May-04 22:00 UTC. Time now 2016-May-05 02:49 UTC.
Position N 15°08' E 137°23'.

Water temperature 28.7 ° C

Date/timePositionNaut miles runAvg speedWind from/ knotsBaromVisibWave heightAir tempDewpointWater temp
2016-May-04 22:00N 15°08' E 137°23'0 0.0 28.7
2016-May-04 20:00N 15°08' E 137°23'1 0.5 28.7
2016-May-04 19:00N 15°08' E 137°23'1 0.8 28.7
2016-May-04 18:00N 15°08' E 137°23'1 1.0 28.7
2016-May-04 17:00N 15°08' E 137°25'0 0.0 28.7
2016-May-04 16:00N 15°08' E 137°25'1 0.3 28.7
2016-May-04 12:00N 15°08' E 137°26'0 0.1 28.8
2016-May-04 11:00N 15°08' E 137°26'2 0.8 28.8
2016-May-04 08:00N 15°09' E 137°28'2 1.8 28.9
2016-May-04 07:00N 15°08' E 137°26'2 0.9 28.9
2016-May-04 05:00N 15°09' E 137°28'3 0.7 28.9
2016-May-04 01:00N 15°12' E 137°29'1 0.7 28.8
2016-May-03 23:00N 15°13' E 137°28'2 0.7 28.7
2016-May-03 20:00N 15°14' E 137°27'0 0.2 28.7
2016-May-03 19:00N 15°14' E 137°27'0 0.1 28.7
2016-May-03 18:00N 15°14' E 137°27'0 0.4 28.7
2016-May-03 17:00N 15°15' E 137°27'0 0.0 28.8
2016-May-03 16:00N 15°15' E 137°27'1 0.2 28.7
2016-May-03 13:00N 15°15' E 137°27'2 0.6 28.8
2016-May-03 10:00N 15°17' E 137°26'0 0.4 28.8
2016-May-03 09:00N 15°16' E 137°26'0 0.2 28.9
2016-May-03 07:00N 15°16' E 137°26'0 0.2 29.0
2016-May-03 05:00N 15°15' E 137°26'1 1.0 28.9
2016-May-03 04:00N 15°15' E 137°27'1 0.4 28.9
2016-May-03 01:00N 15°17' E 137°28'0 0.0 28.8
2016-May-03 00:00N 15°17' E 137°28'1 0.6 28.7
2016-May-02 23:00N 15°17' E 137°27'0 0.0 28.7
2016-May-02 22:00N 15°17' E 137°27'1 0.7 28.7
2016-May-02 21:00N 15°18' E 137°27'0 0.2 28.7
2016-May-02 20:00N 15°18' E 137°27'0 0.3 28.8
2016-May-02 19:00N 15°17' E 137°27'1 0.9 28.8
2016-May-02 18:00N 15°18' E 137°28'0 0.0 28.8
2016-May-02 17:00N 15°18' E 137°28'2 2.5 28.8
2016-May-02 16:00N 15°19' E 137°30'2 0.3 28.8
2016-May-02 09:00N 15°21' E 137°31'5 0.6 29.0
2016-May-02 01:00N 15°24' E 137°34'2 0.4 28.8
2016-May-01 21:00N 15°26' E 137°33'0 0.3 28.5
2016-May-01 20:00N 15°26' E 137°33'1 0.8 28.6
2016-May-01 19:00N 15°27' E 137°33'0 0.2 28.6
2016-May-01 18:00N 15°27' E 137°33'0 0.0 28.7
2016-May-01 17:00N 15°27' E 137°33'2 0.5 28.7
2016-May-01 13:00N 15°27' E 137°35'0 0.0 28.7
2016-May-01 12:00N 15°27' E 137°35'1 0.6 28.8
2016-May-01 11:00N 15°27' E 137°35'1 0.5 28.8
2016-May-01 09:00N 15°27' E 137°36'1 0.8 28.8
2016-May-01 08:00N 15°27' E 137°37'1 0.3 28.9
2016-May-01 06:00N 15°27' E 137°38'1 0.5 29.2
2016-May-01 04:00N 15°27' E 137°39'2 0.8 29.1
2016-May-01 01:00N 15°27' E 137°41'0 0.5 28.7
2016-May-01 00:00N 15°27' E 137°41'2 2.2 28.5
2016-Apr-30 23:00N 15°27' E 137°43'0 0.2 28.5
2016-Apr-30 21:00N 15°27' E 137°43'1 1.1 28.4
2016-Apr-30 20:00N 15°28' E 137°44'1 0.8 28.4
2016-Apr-30 19:00N 15°28' E 137°43'1 0.8 28.4
2016-Apr-30 18:00N 15°28' E 137°44'0 0.1 28.5
2016-Apr-30 17:00N 15°28' E 137°44'0 0.0 28.5
2016-Apr-30 16:00N 15°28' E 137°44'3 0.7 28.6
2016-Apr-30 11:00N 15°26' E 137°47'2 1.1 28.7
2016-Apr-30 09:00N 15°26' E 137°49'1 1.0 28.8
2016-Apr-30 08:00N 15°26' E 137°50'1 0.8 29.0
2016-Apr-30 07:00N 15°27' E 137°51'1 0.8 29.2
2016-Apr-30 06:00N 15°26' E 137°52'0 0.0 29.2
2016-Apr-30 05:00N 15°26' E 137°52'0 0.0 29.1
2016-Apr-30 04:00N 15°26' E 137°52'2 0.5 29.1
2016-Apr-30 01:00N 15°25' E 137°53'1 0.9 28.6
2016-Apr-30 00:00N 15°25' E 137°54'0 0.0 28.5
2016-Apr-29 23:00N 15°25' E 137°54'0 0.5 28.4
2016-Apr-29 22:00N 15°25' E 137°54'0 0.3 28.4
2016-Apr-29 21:00N 15°24' E 137°55'1 0.9 28.4
2016-Apr-29 20:00N 15°24' E 137°56'1 0.6 28.4
2016-Apr-29 19:00N 15°24' E 137°56'1 0.7 28.4
2016-Apr-29 17:00N 15°24' E 137°57'0 0.0 28.5
2016-Apr-29 16:00N 15°24' E 137°57'2 0.7 28.5
2016-Apr-29 13:00N 15°22' E 137°59'0 0.0 28.7
2016-Apr-29 12:00N 15°22' E 137°59'2 1.2 28.8
2016-Apr-29 10:00N 15°21' E 138°01'2 1.8 28.8
2016-Apr-29 09:00N 15°20' E 138°03'0 0.2 29.0
2016-Apr-29 07:00N 15°20' E 138°03'2 1.7 29.1
2016-Apr-29 06:00N 15°20' E 138°05'1 0.3 29.3
2016-Apr-29 04:00N 15°20' E 138°04'0 0.1 29.1
2016-Apr-29 01:00N 15°19' E 138°04'0 0.0 28.6
2016-Apr-29 00:00N 15°19' E 138°04'1 1.4 28.5
2016-Apr-28 23:00N 15°18' E 138°04'1 1.1 28.4
2016-Apr-28 22:00N 15°18' E 138°05'1 0.6 28.3
2016-Apr-28 20:00N 15°17' E 138°06'2 0.2 28.3
2016-Apr-28 11:00N 15°16' E 138°07'1 0.3 28.5
2016-Apr-28 08:00N 15°15' E 138°08'2 0.5 28.6
2016-Apr-28 05:00N 15°14' E 138°09'2 0.4 28.7
2016-Apr-28 01:00N 15°13' E 138°11'0 0.0 28.4
2016-Apr-28 00:00N 15°13' E 138°11'1 1.0 28.4
2016-Apr-27 23:00N 15°12' E 138°10'1 0.2 28.3
2016-Apr-27 20:00N 15°12' E 138°11'0 0.0 28.3
2016-Apr-27 17:00N 15°12' E 138°11'3 0.6 28.3
2016-Apr-27 12:00N 15°09' E 138°11'1 1.1 28.3
2016-Apr-27 11:00N 15°08' E 138°12'0 0.0 28.5
2016-Apr-27 10:00N 15°08' E 138°12'0 0.0 28.5
2016-Apr-27 09:00N 15°08' E 138°12'2 0.5 28.6
2016-Apr-27 05:00N 15°06' E 138°13'2 0.3 28.8
2016-Apr-26 21:00N 15°04' E 138°14'1 0.4 28.2
2016-Apr-26 18:00N 15°04' E 138°14'1 0.5 28.3
2016-Apr-26 16:00N 15°03' E 138°15'1 0.3 28.3
2016-Apr-26 12:00N 15°03' E 138°17'1 0.3 28.3
2016-Apr-26 10:00N 15°03' E 138°17'0 0.1 28.3
2016-Apr-26 08:00N 15°03' E 138°18'0 0.0 28.4
2016-Apr-26 07:00N 15°03' E 138°18'1 0.3 28.4
2016-Apr-26 05:00N 15°04' E 138°18'0 0.1 28.5
2016-Apr-26 01:00N 15°04' E 138°18'2 1.6 28.3
2016-Apr-26 00:00N 15°02' E 138°18'0 0.0 28.2
2016-Apr-25 23:00N 15°02' E 138°18'0 0.2 28.2
2016-Apr-25 21:00N 15°02' E 138°18'1 0.6 28.2
2016-Apr-25 20:00N 15°02' E 138°18'0 0.3 28.2
2016-Apr-25 19:00N 15°02' E 138°18'0 0.3 28.2
2016-Apr-25 18:00N 15°02' E 138°19'0 0.3 28.2
2016-Apr-25 17:00N 15°01' E 138°19'2 1.7 28.2
2016-Apr-25 16:00N 15°00' E 138°20'1 0.1 28.2
2016-Apr-25 11:00N 15°00' E 138°21'1 1.1 28.2
2016-Apr-25 10:00N 14°60' E 138°22'0 0.4 28.3
2016-Apr-25 09:00N 14°60' E 138°22'1 0.7 28.3
2016-Apr-25 08:00N 14°60' E 138°22'1 0.5 28.3
2016-Apr-25 07:00N 14°59' E 138°22'1 0.8 28.3
2016-Apr-25 06:00N 14°59' E 138°23'0 0.0 28.3
2016-Apr-25 05:00N 14°59' E 138°23'3 0.5 28.3
2016-Apr-24 23:00N 14°59' E 138°26'0 0.3 28.2
2016-Apr-24 22:00N 14°59' E 138°26'   28.1

Dump ship's entire track history